Time;durP1;ratioP1;P1;durP2;ratioP2;P2;SDS_P1;SDS_P2;PMS_P1;PMS_P2;Temp;Humidity;BMP_temperature;BMP_pressure;BME280_temperature;BME280_humidity;BME280_pressure;Samples;Min_cycle;Max_cycle;Signal;HPM_P1;HPM_P2
2022/05/07 00:00:45;;;;;;;11.52;8.70;;;;;;;18.10;59.40;100334.56;4466186;32;34540;-58
2022/05/07 00:03:13;;;;;;;11.10;9.00;;;;;;;18.32;58.45;100324.53;4468181;32;34074;-57
2022/05/07 00:05:41;;;;;;;13.00;9.07;;;;;;;18.48;58.21;100326.62;4468307;32;33371;-58
2022/05/07 00:08:08;;;;;;;12.27;8.90;;;;;;;18.45;57.62;100326.59;4456432;32;33058;-57
2022/05/07 00:10:36;;;;;;;11.85;8.38;;;;;;;18.37;57.99;100328.13;4437014;32;32315;-58
2022/05/07 00:13:04;;;;;;;11.45;8.05;;;;;;;18.38;57.83;100327.28;4452331;32;34535;-58
2022/05/07 00:15:32;;;;;;;12.95;8.27;;;;;;;18.28;57.89;100323.59;4452736;32;35013;-58
2022/05/07 00:18:04;;;;;;;12.55;7.70;;;;;;;18.24;57.91;100327.88;4438084;32;32891;-58
2022/05/07 00:20:33;;;;;;;10.93;8.43;;;;;;;18.33;57.61;100326.28;4450278;32;34037;-58
2022/05/07 00:23:01;;;;;;;12.02;7.93;;;;;;;18.53;57.16;100324.13;4448644;32;34322;-58
2022/05/07 00:25:29;;;;;;;10.85;7.53;;;;;;;18.27;57.28;100322.72;4454016;32;33964;-57
2022/05/07 00:27:56;;;;;;;11.50;9.10;;;;;;;18.18;57.78;100327.75;4456418;32;33480;-57
2022/05/07 00:30:24;;;;;;;12.10;8.23;;;;;;;18.45;57.01;100326.59;4462084;32;34424;-58
2022/05/07 00:32:52;;;;;;;12.02;7.68;;;;;;;18.11;57.87;100335.44;4444735;32;32492;-57
2022/05/07 00:35:19;;;;;;;12.45;8.52;;;;;;;18.33;57.83;100331.53;4452188;32;33739;-58
2022/05/07 00:37:47;;;;;;;10.90;7.93;;;;;;;18.45;57.56;100337.94;4452566;32;34122;-57
2022/05/07 00:40:16;;;;;;;12.52;8.20;;;;;;;18.65;56.88;100335.72;4449646;32;34225;-58
2022/05/07 00:42:43;;;;;;;11.77;8.30;;;;;;;18.05;59.07;100337.06;4451531;32;32491;-57
2022/05/07 00:45:11;;;;;;;10.50;8.32;;;;;;;18.58;57.59;100328.59;4451623;32;33836;-58
2022/05/07 00:47:39;;;;;;;11.68;8.48;;;;;;;18.49;57.62;100333.66;4450767;32;34261;-58
2022/05/07 00:52:53;;;;;;;11.80;8.45;;;;;;;18.80;56.99;100339.56;4450283;32;33657;-58
2022/05/07 00:55:20;;;;;;;11.27;8.35;;;;;;;19.01;55.82;100328.59;4314025;26;34871;-58
2022/05/07 00:57:48;;;;;;;12.55;8.65;;;;;;;18.47;57.90;100335.37;4452627;32;34230;-57
2022/05/07 01:00:16;;;;;;;11.38;7.75;;;;;;;18.76;56.74;100322.84;4464256;32;33980;-57
2022/05/07 01:02:44;;;;;;;10.63;8.13;;;;;;;18.73;55.85;100327.12;4467500;32;33803;-58
2022/05/07 01:05:12;;;;;;;12.20;8.10;;;;;;;18.74;55.72;100321.94;4465377;32;33352;-57
2022/05/07 01:07:40;;;;;;;12.55;8.00;;;;;;;18.79;55.39;100324.63;4450244;32;33228;-58
2022/05/07 01:10:08;;;;;;;10.50;7.87;;;;;;;18.86;55.35;100321.31;4467427;32;34102;-58
2022/05/07 01:12:36;;;;;;;10.55;8.20;;;;;;;18.84;55.40;100316.03;4467971;32;33731;-58
2022/05/07 01:15:06;;;;;;;11.32;8.05;;;;;;;18.89;54.82;100320.47;4467100;32;33919;-58
2022/05/07 01:17:34;;;;;;;11.32;8.13;;;;;;;18.72;55.40;100320.12;4461329;32;33654;-58
2022/05/07 01:20:08;;;;;;;12.00;7.85;;;;;;;18.72;55.58;100321.00;4475232;32;33882;-58
2022/05/07 01:22:37;;;;;;;10.07;7.60;;;;;;;19.03;54.58;100317.28;4475539;32;33809;-58
2022/05/07 01:25:05;;;;;;;10.70;7.78;;;;;;;18.73;55.88;100321.87;4464915;32;34498;-58
2022/05/07 01:27:33;;;;;;;13.32;8.02;;;;;;;18.81;55.62;100326.50;4466502;32;34084;-58
2022/05/07 01:30:02;;;;;;;11.12;7.32;;;;;;;18.76;55.76;100319.34;4460505;32;33965;-58
2022/05/07 01:32:31;;;;;;;12.80;8.32;;;;;;;18.94;54.64;100311.84;4460740;32;34598;-58
2022/05/07 01:34:59;;;;;;;11.35;7.05;;;;;;;18.35;56.09;100320.25;4451821;32;34149;-58
2022/05/07 01:37:28;;;;;;;11.38;6.95;;;;;;;18.56;55.35;100322.44;4472723;32;33503;-57
2022/05/07 01:39:55;;;;;;;11.77;6.97;;;;;;;18.76;54.57;100317.59;4454356;32;34644;-58
2022/05/07 01:42:23;;;;;;;10.50;6.62;;;;;;;18.43;55.17;100313.44;4462834;32;33930;-57
2022/05/07 01:44:51;;;;;;;9.93;6.80;;;;;;;18.09;55.98;100322.28;4455052;32;33511;-58
2022/05/07 01:50:06;;;;;;;8.70;6.57;;;;;;;18.24;55.16;100312.13;4451900;32;34232;-58
2022/05/07 01:52:33;;;;;;;10.48;6.85;;;;;;;18.44;54.66;100314.31;4465610;32;33884;-58
2022/05/07 01:55:01;;;;;;;11.63;7.03;;;;;;;18.53;54.35;100318.87;4449873;32;32482;-58
2022/05/07 01:57:30;;;;;;;9.55;6.82;;;;;;;18.47;54.49;100312.63;4455360;32;33112;-58
2022/05/07 01:59:59;;;;;;;8.48;6.35;;;;;;;18.60;53.72;100313.78;4459256;32;32563;-57
2022/05/07 02:02:38;;;;;;;8.23;6.45;;;;;;;18.19;54.86;100311.16;4466972;32;34352;-58
2022/05/07 02:05:07;;;;;;;8.15;6.20;;;;;;;18.43;54.08;100312.56;4462388;32;34046;-57
2022/05/07 02:07:35;;;;;;;8.85;5.95;;;;;;;18.41;54.21;100314.25;4462250;32;33521;-57
2022/05/07 02:10:02;;;;;;;9.10;6.80;;;;;;;18.45;53.86;100310.84;4459247;32;34417;-57
2022/05/07 02:12:31;;;;;;;8.43;6.25;;;;;;;18.52;53.51;100307.47;4464058;32;34692;-57
2022/05/07 02:14:59;;;;;;;8.45;6.05;;;;;;;18.51;53.47;100305.72;4470550;32;34463;-57
2022/05/07 02:17:27;;;;;;;9.35;6.07;;;;;;;18.24;54.34;100316.50;4469097;32;33187;-58
2022/05/07 02:19:55;;;;;;;9.25;6.05;;;;;;;18.17;54.21;100314.59;4458839;32;33394;-58
2022/05/07 02:22:24;;;;;;;9.40;6.28;;;;;;;18.30;54.15;100315.75;4465262;32;32538;-58
2022/05/07 02:24:51;;;;;;;8.43;5.65;;;;;;;18.55;53.40;100312.78;4461065;32;34461;-57
2022/05/07 02:27:20;;;;;;;7.40;5.55;;;;;;;18.67;53.10;100307.78;4461183;32;34374;-58
2022/05/07 02:29:48;;;;;;;8.10;5.75;;;;;;;18.49;53.43;100310.06;4465987;32;34413;-58
2022/05/07 02:32:17;;;;;;;7.97;5.50;;;;;;;18.58;53.08;100307.63;4447755;32;34063;-58
2022/05/07 02:34:45;;;;;;;7.43;5.43;;;;;;;18.31;53.90;100312.28;4452868;32;32466;-57
2022/05/07 02:37:13;;;;;;;6.90;5.10;;;;;;;18.34;53.76;100307.97;4459136;32;34804;-58
2022/05/07 02:39:42;;;;;;;8.02;5.37;;;;;;;18.42;53.35;100310.75;4466247;32;34069;-57
2022/05/07 02:44:56;;;;;;;7.28;5.45;;;;;;;18.25;53.60;100308.69;4466495;32;34014;-58
2022/05/07 02:47:24;;;;;;;7.87;5.00;;;;;;;18.19;53.77;100313.75;4465144;32;33435;-58
2022/05/07 02:49:51;;;;;;;6.50;5.07;;;;;;;18.10;53.61;100308.34;4466231;32;33528;-57
2022/05/07 02:52:19;;;;;;;6.95;5.15;;;;;;;18.18;53.58;100312.00;4465839;32;33983;-57
2022/05/07 02:54:47;;;;;;;8.27;5.43;;;;;;;18.12;53.69;100314.50;4468685;32;33977;-58
2022/05/07 02:57:15;;;;;;;6.57;5.43;;;;;;;17.95;53.98;100313.25;4467762;32;33534;-57
2022/05/07 02:59:42;;;;;;;9.95;5.37;;;;;;;17.98;54.32;100313.28;4468600;32;32400;-57
2022/05/07 03:02:10;;;;;;;7.22;5.37;;;;;;;17.90;54.34;100312.25;4467045;32;33904;-58
2022/05/07 03:04:38;;;;;;;7.78;5.80;;;;;;;17.83;54.51;100309.44;4468071;32;34635;-58
2022/05/07 03:07:06;;;;;;;9.93;5.22;;;;;;;17.86;55.20;100316.50;4468187;32;33967;-57
2022/05/07 03:09:34;;;;;;;7.05;5.72;;;;;;;18.21;54.03;100316.44;4468788;32;34282;-58
2022/05/07 03:12:01;;;;;;;6.97;5.62;;;;;;;17.95;55.01;100318.47;4453255;32;33829;-58
2022/05/07 03:14:29;;;;;;;7.87;5.70;;;;;;;18.16;54.25;100311.09;4467811;32;34305;-57
2022/05/07 03:16:57;;;;;;;7.53;5.18;;;;;;;18.03;54.53;100311.66;4467503;32;33590;-57
2022/05/07 03:19:25;;;;;;;8.85;5.12;;;;;;;18.02;54.47;100305.56;4467554;32;33837;-58
2022/05/07 03:21:52;;;;;;;8.73;5.15;;;;;;;18.26;53.87;100314.81;4465939;32;34835;-57
2022/05/07 03:24:22;;;;;;;8.25;5.85;;;;;;;17.91;54.71;100311.41;4468150;32;34400;-58
2022/05/07 03:26:50;;;;;;;7.68;4.85;;;;;;;18.19;53.73;100318.13;4468485;32;33498;-58
2022/05/07 03:29:19;;;;;;;7.75;5.65;;;;;;;18.10;53.92;100307.44;4455151;32;33173;-58
2022/05/07 03:31:49;;;;;;;8.02;5.80;;;;;;;18.16;53.80;100312.84;4467368;32;33936;-58
2022/05/07 03:34:17;;;;;;;7.93;5.43;;;;;;;18.09;54.10;100317.03;4452018;32;33882;-58
2022/05/07 03:36:45;;;;;;;8.80;6.25;;;;;;;18.14;54.01;100315.41;4467565;32;33300;-57
2022/05/07 03:39:13;;;;;;;8.88;6.25;;;;;;;17.92;54.48;100316.66;4469614;32;34369;-58
2022/05/07 03:41:41;;;;;;;8.77;6.28;;;;;;;18.23;53.95;100320.88;4467042;32;34486;-57
2022/05/07 03:44:09;;;;;;;10.40;6.30;;;;;;;17.76;55.10;100320.62;4453017;32;33598;-57
2022/05/07 03:46:36;;;;;;;8.68;5.93;;;;;;;18.01;54.52;100316.00;4466649;32;31926;-57
2022/05/07 03:49:05;;;;;;;8.23;5.65;;;;;;;17.79;55.12;100328.56;4467870;32;34828;-57
2022/05/07 03:53:29;;;;;;;10.25;5.57;;;;;;;18.01;54.68;100323.84;4467070;32;33816;-58
2022/05/07 03:54:22;;;;;;;10.07;6.10;;;;;;;18.17;54.19;100325.97;4468159;32;34144;-58
2022/05/07 03:56:50;;;;;;;8.32;6.10;;;;;;;17.91;54.85;100316.66;4467520;32;33459;-58
2022/05/07 03:59:20;;;;;;;8.07;5.87;;;;;;;17.83;55.31;100319.94;4452934;32;34642;-58
2022/05/07 04:01:48;;;;;;;8.25;6.00;;;;;;;17.78;55.32;100332.03;4464374;32;33750;-58
2022/05/07 04:04:17;;;;;;;9.98;5.90;;;;;;;17.94;55.09;100321.94;4465656;32;35894;-57
2022/05/07 04:06:46;;;;;;;7.68;6.00;;;;;;;17.96;54.70;100320.22;4464574;32;33733;-58
2022/05/07 04:09:14;;;;;;;8.77;5.85;;;;;;;18.02;54.54;100326.53;4465203;32;35490;-58
2022/05/07 04:11:41;;;;;;;8.30;6.55;;;;;;;18.07;54.64;100329.22;4466681;32;32378;-58
2022/05/07 04:14:09;;;;;;;8.70;6.00;;;;;;;18.13;54.51;100326.75;4468224;32;34613;-58
2022/05/07 04:16:37;;;;;;;7.93;6.20;;;;;;;18.16;54.62;100329.44;4467104;32;34057;-57
2022/05/07 04:19:12;;;;;;;8.13;6.05;;;;;;;18.08;54.69;100336.25;4467444;32;33983;-58
2022/05/07 04:21:40;;;;;;;8.18;6.28;;;;;;;18.45;53.83;100332.69;4468130;32;34654;-58
2022/05/07 04:24:08;;;;;;;8.50;5.75;;;;;;;18.13;54.40;100334.63;4468376;32;33907;-58
2022/05/07 04:26:36;;;;;;;8.13;5.90;;;;;;;18.33;53.88;100334.16;4468959;32;33638;-58
2022/05/07 04:29:04;;;;;;;8.35;6.22;;;;;;;18.11;54.82;100332.81;4468405;32;34044;-58
2022/05/07 04:31:32;;;;;;;8.98;6.05;;;;;;;18.26;54.22;100326.16;4468378;32;33761;-58
2022/05/07 04:34:02;;;;;;;8.90;6.22;;;;;;;18.28;54.20;100334.97;4451011;32;32052;-58
2022/05/07 04:36:30;;;;;;;8.68;6.10;;;;;;;18.55;53.49;100339.03;4464045;32;33511;-57
2022/05/07 04:39:00;;;;;;;7.28;6.12;;;;;;;18.49;53.71;100333.66;4453728;32;33083;-58
2022/05/07 04:41:28;;;;;;;7.97;5.95;;;;;;;18.24;54.56;100338.37;4462665;32;34763;-58
2022/05/07 04:43:57;;;;;;;8.57;6.57;;;;;;;18.08;54.84;100344.12;4454443;32;33590;-58
2022/05/07 04:46:24;;;;;;;9.20;5.97;;;;;;;18.30;54.33;100342.00;4466877;32;34136;-58
2022/05/07 04:48:55;;;;;;;8.35;6.22;;;;;;;18.21;54.48;100342.66;4460750;32;34656;-58
2022/05/07 04:51:22;;;;;;;8.50;6.00;;;;;;;18.30;54.29;100342.00;4465254;32;33913;-57
2022/05/07 04:54:07;;;;;;;9.43;6.23;;;;;;;18.16;54.92;100333.81;4467521;32;34397;-57
2022/05/07 04:56:35;;;;;;;7.65;5.53;;;;;;;18.34;54.50;100343.81;4467461;32;33169;-58
2022/05/07 04:59:03;;;;;;;7.47;5.97;;;;;;;18.61;53.75;100339.16;4440666;32;34732;-58
2022/05/07 05:01:31;;;;;;;9.15;5.35;;;;;;;18.53;54.24;100343.38;4465069;32;35421;-58
2022/05/07 05:04:00;;;;;;;8.75;6.25;;;;;;;18.46;54.32;100339.69;4466726;32;33874;-57
2022/05/07 05:06:27;;;;;;;9.02;5.90;;;;;;;18.58;54.09;100332.94;4462633;32;34155;-58
2022/05/07 05:08:55;;;;;;;9.07;6.20;;;;;;;18.60;53.88;100337.41;4467510;32;34642;-57
2022/05/07 05:11:23;;;;;;;11.02;6.30;;;;;;;18.73;53.81;100337.62;4468420;32;33529;-58
2022/05/07 05:13:52;;;;;;;9.48;6.22;;;;;;;18.52;54.47;100343.31;4465231;32;33186;-57
2022/05/07 05:16:20;;;;;;;9.70;7.05;;;;;;;18.75;53.72;100346.41;4451559;32;33287;-57
2022/05/07 05:18:48;;;;;;;8.85;6.28;;;;;;;18.55;54.28;100344.28;4468137;32;34431;-57
2022/05/07 05:21:16;;;;;;;7.97;6.45;;;;;;;18.49;54.59;100344.16;4452346;32;33107;-58
2022/05/07 05:23:46;;;;;;;8.20;5.82;;;;;;;18.63;54.44;100347.06;4466623;32;33848;-58
2022/05/07 05:26:14;;;;;;;7.50;6.37;;;;;;;19.03;53.50;100353.16;4457290;32;33626;-57
2022/05/07 05:28:43;;;;;;;9.82;6.10;;;;;;;18.73;54.25;100348.13;4464500;32;34048;-57
2022/05/07 05:31:11;;;;;;;9.75;6.25;;;;;;;18.47;54.97;100345.87;4465613;32;33886;-57
2022/05/07 05:33:39;;;;;;;8.18;6.25;;;;;;;19.22;53.12;100350.00;4465763;32;34482;-58
2022/05/07 05:36:07;;;;;;;9.82;7.20;;;;;;;18.85;53.97;100343.16;4463692;32;34111;-57
2022/05/07 05:38:35;;;;;;;8.63;6.97;;;;;;;18.64;54.55;100348.84;4464590;32;33936;-57
2022/05/07 05:41:03;;;;;;;11.55;5.72;;;;;;;19.16;53.26;100346.38;4463717;32;35895;-57
2022/05/07 05:43:32;;;;;;;7.55;5.90;;;;;;;18.71;54.61;100347.22;4449863;32;34069;-57
2022/05/07 05:46:00;;;;;;;9.38;6.10;;;;;;;18.49;55.19;100349.41;4464994;32;34210;-57
2022/05/07 05:48:30;;;;;;;7.62;6.18;;;;;;;18.85;54.54;100351.03;4458492;32;33632;-57
2022/05/07 05:50:58;;;;;;;9.18;6.20;;;;;;;18.66;54.61;100355.87;4460508;32;34977;-57
2022/05/07 05:53:30;;;;;;;9.45;6.30;;;;;;;18.46;55.29;100354.56;4462256;32;33462;-57
2022/05/07 05:56:00;;;;;;;10.00;6.40;;;;;;;18.72;54.90;100363.00;4448127;32;33108;-57
2022/05/07 05:58:35;;;;;;;9.85;6.75;;;;;;;18.71;54.50;100365.59;4470212;32;33882;-57
2022/05/07 06:01:03;;;;;;;8.32;6.22;;;;;;;18.52;55.17;100359.94;4451681;32;33728;-57
2022/05/07 06:03:31;;;;;;;10.27;6.60;;;;;;;18.59;55.11;100359.22;4466132;32;33819;-57
2022/05/07 06:05:59;;;;;;;9.55;6.00;;;;;;;18.78;54.66;100357.00;4475234;32;33676;-57
2022/05/07 06:08:27;;;;;;;8.43;6.45;;;;;;;18.93;54.53;100353.81;4464072;32;33660;-57
2022/05/07 06:10:57;;;;;;;8.68;6.62;;;;;;;18.96;54.56;100357.38;4466998;32;33715;-57
2022/05/07 06:13:25;;;;;;;10.95;6.87;;;;;;;18.93;54.33;100357.34;4478429;32;34515;-57
2022/05/07 06:15:53;;;;;;;10.30;7.30;;;;;;;19.10;53.80;100359.37;4477614;32;32905;-57
2022/05/07 06:18:22;;;;;;;10.20;6.65;;;;;;;18.99;53.95;100357.44;4479076;32;34454;-57
2022/05/07 06:20:52;;;;;;;8.70;6.40;;;;;;;19.17;53.76;100361.28;4477298;32;33762;-57
2022/05/07 06:23:22;;;;;;;12.23;6.80;;;;;;;19.40;52.99;100362.59;4474519;32;34631;-57
2022/05/07 06:28:35;;;;;;;8.57;6.22;;;;;;;19.45;53.18;100363.56;4466908;32;33498;-56
2022/05/07 06:31:04;;;;;;;10.45;6.57;;;;;;;19.21;53.53;100368.34;4474796;32;33951;-57
2022/05/07 06:33:32;;;;;;;11.35;7.15;;;;;;;19.18;53.46;100357.78;4471510;32;34038;-57
2022/05/07 06:36:01;;;;;;;11.43;6.55;;;;;;;19.32;53.50;100360.69;4473624;32;33355;-57
2022/05/07 06:38:28;;;;;;;9.10;6.70;;;;;;;19.34;53.54;100359.84;4455623;32;33020;-57
2022/05/07 06:40:56;;;;;;;12.63;7.12;;;;;;;19.16;53.89;100364.75;4474107;32;33804;-57
2022/05/07 06:43:24;;;;;;;9.23;6.18;;;;;;;19.34;54.18;100365.09;4462890;32;34589;-57
2022/05/07 06:45:52;;;;;;;8.23;6.07;;;;;;;19.64;52.86;100363.84;4452236;32;33859;-57
2022/05/07 06:48:20;;;;;;;8.05;6.37;;;;;;;19.72;53.60;100366.66;4464707;32;34155;-57
2022/05/07 06:50:50;;;;;;;9.63;6.78;;;;;;;19.59;53.36;100366.41;4468163;32;33030;-57
2022/05/07 06:53:19;;;;;;;10.85;7.00;;;;;;;19.28;54.04;100365.00;4470785;32;33916;-57
2022/05/07 06:55:55;;;;;;;9.27;6.82;;;;;;;19.31;54.01;100362.41;4459482;32;33337;-57
2022/05/07 06:58:34;;;;;;;9.48;6.87;;;;;;;19.59;53.08;100360.28;4448913;32;33888;-57
2022/05/07 07:01:02;;;;;;;8.98;6.87;;;;;;;19.60;53.02;100362.03;4449933;32;33579;-57
2022/05/07 07:03:33;;;;;;;9.27;7.00;;;;;;;19.56;52.80;100360.22;4449607;32;34481;-57
2022/05/07 07:06:02;;;;;;;9.23;6.40;;;;;;;19.51;53.24;100351.38;4449071;32;33088;-57
2022/05/07 07:08:31;;;;;;;9.02;7.05;;;;;;;19.65;52.96;100361.25;4447091;32;34560;-57
2022/05/07 07:10:59;;;;;;;8.40;6.45;;;;;;;19.84;52.83;100366.88;4445556;32;33670;-57
2022/05/07 07:13:26;;;;;;;8.00;6.70;;;;;;;20.08;51.91;100361.09;4447888;32;32822;-57
2022/05/07 07:15:54;;;;;;;9.60;7.03;;;;;;;20.62;50.21;100360.13;4442265;32;33601;-56
2022/05/07 07:18:22;;;;;;;9.90;6.65;;;;;;;20.27;50.98;100364.00;4428668;32;32249;-57
2022/05/07 07:20:50;;;;;;;8.68;6.80;;;;;;;20.31;51.56;100364.06;4447303;32;34535;-58
2022/05/07 07:23:17;;;;;;;9.15;6.78;;;;;;;20.50;51.11;100370.47;4431386;32;34067;-58
2022/05/07 07:25:45;;;;;;;15.43;6.22;;;;;;;20.38;51.23;100368.56;4455678;32;34018;-57
2022/05/07 07:28:13;;;;;;;13.10;6.47;;;;;;;20.51;51.72;100377.47;4448753;32;34305;-58
2022/05/07 07:30:41;;;;;;;11.05;6.43;;;;;;;20.61;50.96;100374.16;4455105;32;33683;-58
2022/05/07 07:33:12;;;;;;;11.48;6.93;;;;;;;20.61;51.63;100379.44;4451495;32;34421;-58
2022/05/07 07:35:41;;;;;;;8.45;6.22;;;;;;;20.80;50.59;100379.63;4453014;32;33423;-58
2022/05/07 07:38:10;;;;;;;10.10;7.03;;;;;;;21.00;50.48;100380.78;4452830;32;33396;-58
2022/05/07 07:40:39;;;;;;;8.27;5.90;;;;;;;21.23;49.28;100374.88;4439630;32;33929;-58
2022/05/07 07:43:06;;;;;;;8.75;6.60;;;;;;;21.29;49.17;100374.94;4451515;32;34540;-58
2022/05/07 07:48:20;;;;;;;10.48;7.15;;;;;;;21.45;49.49;100372.50;4461800;32;33825;-58
2022/05/07 07:50:50;;;;;;;9.25;6.85;;;;;;;21.71;49.44;100378.91;4460215;32;33401;-57
2022/05/07 07:53:18;;;;;;;8.45;6.22;;;;;;;21.55;48.09;100375.22;4440061;32;33196;-58
2022/05/07 07:55:46;;;;;;;8.38;6.43;;;;;;;21.91;47.09;100376.41;4457344;32;33331;-57
2022/05/07 07:58:14;;;;;;;10.15;6.00;;;;;;;21.57;48.27;100375.22;4466651;32;32987;-57
2022/05/07 08:00:44;;;;;;;12.15;6.50;;;;;;;21.37;49.01;100375.91;4469112;32;33771;-57
2022/05/07 08:03:19;;;;;;;10.35;6.22;;;;;;;21.63;48.35;100374.41;4468509;32;33450;-58
2022/05/07 08:05:49;;;;;;;8.55;6.47;;;;;;;21.61;48.77;100374.38;4456242;32;33935;-58
2022/05/07 08:13:53;;;;;;;8.98;6.00;;;;;;;21.82;47.51;100375.44;4475084;32;34879;-58
2022/05/07 08:16:22;;;;;;;9.80;6.05;;;;;;;22.32;46.93;100377.59;4474226;32;33713;-58
2022/05/07 08:18:51;;;;;;;7.90;6.47;;;;;;;21.78;47.44;100380.69;4463435;32;34020;-58
2022/05/07 08:21:18;;;;;;;6.85;5.60;;;;;;;22.26;46.13;100385.47;4464483;32;34061;-58
2022/05/07 08:23:46;;;;;;;10.75;6.18;;;;;;;22.37;45.89;100375.87;4467540;32;33576;-58
2022/05/07 08:26:15;;;;;;;8.15;5.85;;;;;;;22.49;46.55;100375.94;4469310;32;33392;-59
2022/05/07 08:28:43;;;;;;;9.52;6.47;;;;;;;22.83;45.63;100385.75;4469161;32;33783;-58
2022/05/07 08:31:11;;;;;;;8.80;5.95;;;;;;;23.02;46.08;100384.06;4461782;32;34588;-59
2022/05/07 08:33:43;;;;;;;9.60;6.53;;;;;;;23.22;45.30;100378.88;4463681;32;33631;-59
2022/05/07 08:36:11;;;;;;;8.88;6.32;;;;;;;23.28;45.29;100377.13;4461866;32;34294;-59
2022/05/07 08:38:40;;;;;;;13.98;6.45;;;;;;;22.99;45.44;100394.66;4466405;32;34058;-58
2022/05/07 08:41:09;;;;;;;11.05;6.07;;;;;;;23.25;44.08;100378.88;4461563;32;34510;-58
2022/05/07 08:43:42;;;;;;;7.62;5.62;;;;;;;23.18;42.91;100380.66;4460603;32;33431;-59
2022/05/07 08:46:16;;;;;;;8.27;5.97;;;;;;;23.48;42.50;100376.28;4453191;32;34004;-58
2022/05/07 08:48:46;;;;;;;10.20;6.10;;;;;;;23.87;42.10;100386.03;4466659;32;34441;-58
2022/05/07 08:51:15;;;;;;;8.40;5.90;;;;;;;23.89;42.82;100386.03;4463669;32;32960;-58
2022/05/07 08:53:48;;;;;;;14.25;5.65;;;;;;;23.68;43.44;100389.50;4464362;32;34685;-58
2022/05/07 08:56:17;;;;;;;8.80;5.22;;;;;;;23.88;42.03;100389.56;4465021;32;34090;-58
2022/05/07 08:58:52;;;;;;;11.60;6.25;;;;;;;24.42;40.51;100389.50;4468262;32;33941;-58
2022/05/07 09:01:20;;;;;;;8.10;5.60;;;;;;;24.66;41.14;100388.56;4461038;32;35578;-59
2022/05/07 09:03:49;;;;;;;10.23;5.43;;;;;;;24.89;40.48;100384.03;4471023;32;34052;-59
2022/05/07 09:06:23;;;;;;;10.50;6.00;;;;;;;24.90;39.39;100385.81;4467636;32;32970;-58
2022/05/07 09:08:53;;;;;;;11.73;6.45;;;;;;;25.33;39.09;100381.22;4444320;32;34548;-58
2022/05/07 09:11:21;;;;;;;16.20;6.25;;;;;;;25.65;38.49;100373.00;4466350;32;33708;-58
2022/05/07 09:14:05;;;;;;;15.88;6.47;;;;;;;25.87;37.51;100377.25;4476302;32;34636;-59
2022/05/07 09:16:41;;;;;;;15.00;6.60;;;;;;;25.46;38.48;100374.94;4454616;32;33331;-59
2022/05/07 09:19:23;;;;;;;13.68;5.90;;;;;;;25.60;38.62;100370.41;4465843;32;33893;-59
2022/05/07 09:21:54;;;;;;;10.88;5.85;;;;;;;25.93;37.59;100368.38;4454959;32;34275;-59
2022/05/07 09:24:22;;;;;;;8.93;5.70;;;;;;;26.19;36.53;100375.19;4462850;32;35925;-59
2022/05/07 09:26:50;;;;;;;27.67;6.45;;;;;;;26.15;36.49;100373.47;4476114;32;34165;-59
2022/05/07 09:29:18;;;;;;;56.08;9.73;;;;;;;26.18;35.55;100373.47;4474267;32;33607;-59
2022/05/07 09:31:48;;;;;;;42.28;8.02;;;;;;;26.63;35.32;100376.53;4475399;32;33612;-59
2022/05/07 09:37:16;;;;;;;108.60;12.13;;;;;;;26.39;34.48;100367.91;4467859;32;34024;-59
2022/05/07 09:39:49;;;;;;;17.23;6.28;;;;;;;26.07;35.00;100360.28;4428607;32;33367;-58
2022/05/07 09:42:20;;;;;;;9.82;4.80;;;;;;;25.73;37.02;100357.00;4468162;32;34476;-58
2022/05/07 09:44:48;;;;;;;10.45;5.32;;;;;;;25.80;36.60;100356.06;4458199;32;33027;-59
2022/05/07 09:47:16;;;;;;;10.20;4.97;;;;;;;25.93;35.86;100355.09;4467340;32;33181;-59
2022/05/07 09:52:32;;;;;;;7.65;4.90;;;;;;;26.53;33.99;100351.81;4464713;32;33917;-59
2022/05/07 09:57:46;;;;;;;8.13;4.82;;;;;;;26.43;33.52;100347.50;4461277;32;34051;-58
2022/05/07 10:00:17;;;;;;;6.97;5.32;;;;;;;27.18;33.65;100337.72;4468191;32;33966;-59
2022/05/07 10:03:06;;;;;;;6.75;4.82;;;;;;;27.01;33.41;100329.97;4452984;32;33519;-59
2022/05/07 10:06:05;;;;;;;9.35;5.60;;;;;;;27.08;34.43;100336.94;4448340;32;33785;-58
2022/05/07 10:08:56;;;;;;;8.18;5.05;;;;;;;26.86;34.60;100331.06;4470381;32;33458;-58
2022/05/07 10:11:24;;;;;;;8.95;4.72;;;;;;;27.13;34.32;100324.47;4464322;32;34523;-58
2022/05/07 10:13:58;;;;;;;8.45;5.43;;;;;;;27.35;33.79;100325.06;4443004;32;34234;-58
2022/05/07 10:16:44;;;;;;;8.75;5.50;;;;;;;27.90;32.19;100322.37;4460745;32;33885;-59
2022/05/07 10:19:12;;;;;;;13.23;5.20;;;;;;;27.45;33.40;100325.78;4432145;32;32085;-59
2022/05/07 10:21:40;;;;;;;7.55;4.62;;;;;;;27.59;32.38;100321.09;4461008;32;33779;-58
2022/05/07 10:24:08;;;;;;;9.40;4.87;;;;;;;27.62;32.92;100315.75;4467372;32;34020;-59
2022/05/07 10:26:41;;;;;;;9.43;4.57;;;;;;;28.07;31.85;100320.28;4468511;32;33609;-59
2022/05/07 10:29:26;;;;;;;10.02;4.90;;;;;;;28.25;31.37;100313.72;4460280;32;32946;-59
2022/05/07 10:32:03;;;;;;;7.93;4.68;;;;;;;28.61;30.80;100313.91;4460948;32;34001;-59
2022/05/07 10:34:31;;;;;;;8.10;4.40;;;;;;;28.91;30.03;100308.81;4453720;32;33624;-58
2022/05/07 10:37:07;;;;;;;8.88;5.32;;;;;;;28.77;30.10;100312.66;4463480;32;33472;-58
2022/05/07 10:39:36;;;;;;;7.85;5.50;;;;;;;28.10;32.43;100314.87;4466760;32;33214;-59
2022/05/07 10:42:16;;;;;;;9.75;4.20;;;;;;;28.57;30.49;100310.44;4463151;32;33932;-58
2022/05/07 10:44:43;;;;;;;7.20;4.25;;;;;;;28.51;30.40;100307.91;4464755;32;34607;-59
2022/05/07 10:47:17;;;;;;;7.20;4.85;;;;;;;28.64;29.83;100303.16;4465099;32;32757;-58
2022/05/07 10:49:56;;;;;;;8.43;4.50;;;;;;;28.35;29.50;100303.75;4453284;32;34077;-59
2022/05/07 10:52:30;;;;;;;7.70;4.37;;;;;;;28.62;30.23;100297.00;4447783;32;33846;-59
2022/05/07 10:55:12;;;;;;;7.07;4.20;;;;;;;28.38;29.60;100304.56;4464895;32;34545;-59
2022/05/07 10:57:45;;;;;;;11.60;4.75;;;;;;;28.77;29.21;100312.66;4464026;32;33891;-59
2022/05/07 11:00:23;;;;;;;6.50;4.37;;;;;;;28.37;29.21;100293.94;4458410;32;33013;-58
2022/05/07 11:02:56;;;;;;;6.03;3.67;;;;;;;28.67;29.21;100295.13;4452497;32;33863;-58
2022/05/07 11:05:31;;;;;;;7.15;4.55;;;;;;;28.78;29.54;100297.53;4465069;32;33881;-58
2022/05/07 11:08:02;;;;;;;12.90;4.60;;;;;;;28.73;29.60;100292.31;4471443;32;34478;-59
2022/05/07 11:10:33;;;;;;;8.00;4.55;;;;;;;28.58;29.57;100292.66;4464747;32;33228;-58
2022/05/07 11:13:12;;;;;;;7.60;4.37;;;;;;;28.23;30.62;100294.22;4463275;32;33881;-58
2022/05/07 11:15:42;;;;;;;8.02;4.03;;;;;;;28.28;30.88;100287.03;4464504;32;34507;-58
2022/05/07 11:18:15;;;;;;;8.02;4.22;;;;;;;28.44;30.52;100291.13;4473220;32;33806;-58
2022/05/07 11:20:43;;;;;;;6.35;3.60;;;;;;;28.34;29.36;100289.56;4466819;32;32962;-59
2022/05/07 11:23:14;;;;;;;8.50;3.90;;;;;;;27.78;29.09;100279.06;4465998;32;34558;-58
2022/05/07 11:25:47;;;;;;;9.63;3.87;;;;;;;27.97;29.79;100282.31;4471719;32;34372;-59
2022/05/07 11:28:14;;;;;;;6.78;3.70;;;;;;;27.78;29.67;100281.72;4465575;32;33953;-59
2022/05/07 11:30:52;;;;;;;10.35;4.03;;;;;;;27.85;29.40;100287.81;4471879;32;33485;-58
2022/05/07 11:33:24;;;;;;;7.28;4.50;;;;;;;28.24;29.34;100280.00;4455758;32;33335;-58
2022/05/07 11:36:09;;;;;;;8.77;4.50;;;;;;;28.43;30.35;100270.72;4478641;32;33931;-58
2022/05/07 11:38:37;;;;;;;9.35;4.40;;;;;;;28.29;30.36;100278.13;4464824;32;34494;-59
2022/05/07 11:41:23;;;;;;;12.32;5.80;;;;;;;28.46;30.60;100274.22;4477043;32;34411;-58
2022/05/07 11:46:57;;;;;;;7.37;4.78;;;;;;;28.75;30.51;100265.62;4467068;32;34489;-59
2022/05/07 11:49:33;;;;;;;18.60;5.25;;;;;;;28.85;29.39;100263.63;4462994;32;34079;-58
2022/05/07 11:52:05;;;;;;;18.70;5.90;;;;;;;29.05;29.67;100264.00;4456612;32;34257;-58
2022/05/07 11:54:32;;;;;;;9.15;5.03;;;;;;;28.26;30.32;100267.53;4467394;32;35108;-58
2022/05/07 11:57:00;;;;;;;10.60;4.95;;;;;;;28.54;29.98;100261.66;4468112;32;33700;-58
2022/05/07 11:59:28;;;;;;;9.18;4.80;;;;;;;28.65;29.45;100258.72;4454575;32;33397;-59
2022/05/07 12:01:56;;;;;;;10.55;4.72;;;;;;;28.66;30.59;100256.03;4460662;32;33209;-58
2022/05/07 12:04:30;;;;;;;9.35;4.47;;;;;;;28.72;29.88;100255.88;4464241;32;33722;-58